Tesla, West Virginia
Current Conditions -  °F | °C
As of 8:15 PM on Monday 26 Jan 2015 (Local Time) from KW22 Reporting Station
Overcast Overcast  
Wind Chill: 14°   Ceiling: 600
Heat Index: 23°   Visibility: 10mi
Dew Point: 23°   Wind: 8mph
Humidity: 100%   Direction: 280°W
Pressure: 29.82"   Gusts: NA
Location:  38.5731°N, 80.7117°W
Report Text: KW22 270115Z AUTO 28007KT 10SM OVC006 M05/M05 A2982 RMK AO2
Loading
Personal Weather Stations






























Interactive Weather Map New forecast layout! Learn more

10-Day Weather Forecast

Advertisements
Track Severe Weather on mobile